sensor_id;sensor_type;location;lat;lon;timestamp;temperature;humidity
3756;DHT22;1893;52.526;13.360;2023-06-22T00:00:49;21.10;1.00
3756;DHT22;1893;52.526;13.360;2023-06-22T00:03:15;21.00;1.00
3756;DHT22;1893;52.526;13.360;2023-06-22T00:05:41;21.10;1.00
3756;DHT22;1893;52.526;13.360;2023-06-22T00:08:06;20.90;1.00
3756;DHT22;1893;52.526;13.360;2023-06-22T00:10:32;20.90;1.00
3756;DHT22;1893;52.526;13.360;2023-06-22T00:12:58;20.90;1.00
3756;DHT22;1893;52.526;13.360;2023-06-22T00:15:24;20.90;1.00
3756;DHT22;1893;52.526;13.360;2023-06-22T00:17:51;20.90;72.40
3756;DHT22;1893;52.526;13.360;2023-06-22T00:20:16;20.90;94.60
3756;DHT22;1893;52.526;13.360;2023-06-22T00:22:44;20.80;99.90
3756;DHT22;1893;52.526;13.360;2023-06-22T00:25:10;20.70;99.90
3756;DHT22;1893;52.526;13.360;2023-06-22T00:27:36;20.70;99.90
3756;DHT22;1893;52.526;13.360;2023-06-22T00:30:02;20.60;1.00
3756;DHT22;1893;52.526;13.360;2023-06-22T00:32:28;20.60;1.00
3756;DHT22;1893;52.526;13.360;2023-06-22T00:34:53;20.60;1.00
3756;DHT22;1893;52.526;13.360;2023-06-22T00:37:19;20.50;1.00
3756;DHT22;1893;52.526;13.360;2023-06-22T00:39:44;20.50;99.90
3756;DHT22;1893;52.526;13.360;2023-06-22T00:42:10;20.50;99.90
3756;DHT22;1893;52.526;13.360;2023-06-22T00:44:36;20.40;99.90
3756;DHT22;1893;52.526;13.360;2023-06-22T00:47:02;20.50;99.90
3756;DHT22;1893;52.526;13.360;2023-06-22T00:49:29;20.40;99.90
3756;DHT22;1893;52.526;13.360;2023-06-22T00:51:55;20.40;1.00
3756;DHT22;1893;52.526;13.360;2023-06-22T00:54:21;20.40;1.00
3756;DHT22;1893;52.526;13.360;2023-06-22T00:56:58;20.40;1.00
3756;DHT22;1893;52.526;13.360;2023-06-22T00:59:26;20.40;1.00
3756;DHT22;1893;52.526;13.360;2023-06-22T01:01:51;20.40;1.00
3756;DHT22;1893;52.526;13.360;2023-06-22T01:04:17;20.50;1.00
3756;DHT22;1893;52.526;13.360;2023-06-22T01:07:04;20.40;1.00
3756;DHT22;1893;52.526;13.360;2023-06-22T01:09:36;20.30;1.00
3756;DHT22;1893;52.526;13.360;2023-06-22T01:12:06;20.30;1.00
3756;DHT22;1893;52.526;13.360;2023-06-22T01:14:42;20.20;1.00
3756;DHT22;1893;52.526;13.360;2023-06-22T01:17:09;20.20;1.00
3756;DHT22;1893;52.526;13.360;2023-06-22T01:19:45;20.10;99.90
3756;DHT22;1893;52.526;13.360;2023-06-22T01:22:17;20.10;99.90
3756;DHT22;1893;52.526;13.360;2023-06-22T01:25:11;20.10;99.90
3756;DHT22;1893;52.526;13.360;2023-06-22T01:30:28;20.00;1.00
3756;DHT22;1893;52.526;13.360;2023-06-22T01:32:56;20.00;1.00
3756;DHT22;1893;52.526;13.360;2023-06-22T01:35:22;20.00;1.00
3756;DHT22;1893;52.526;13.360;2023-06-22T01:37:48;20.00;1.00
3756;DHT22;1893;52.526;13.360;2023-06-22T01:40:15;20.00;1.00
3756;DHT22;1893;52.526;13.360;2023-06-22T01:42:41;20.00;1.00
3756;DHT22;1893;52.526;13.360;2023-06-22T01:45:10;20.00;1.00
3756;DHT22;1893;52.526;13.360;2023-06-22T01:47:36;20.00;1.00
3756;DHT22;1893;52.526;13.360;2023-06-22T01:50:02;20.00;1.00
3756;DHT22;1893;52.526;13.360;2023-06-22T01:52:28;19.90;1.00
3756;DHT22;1893;52.526;13.360;2023-06-22T01:54:54;19.90;1.00
3756;DHT22;1893;52.526;13.360;2023-06-22T01:57:20;19.90;1.00
3756;DHT22;1893;52.526;13.360;2023-06-22T02:02:25;19.80;99.90
3756;DHT22;1893;52.526;13.360;2023-06-22T02:05:05;19.80;99.90
3756;DHT22;1893;52.526;13.360;2023-06-22T02:07:41;19.90;99.90
3756;DHT22;1893;52.526;13.360;2023-06-22T02:10:09;19.90;99.90
3756;DHT22;1893;52.526;13.360;2023-06-22T02:12:38;19.90;99.90
3756;DHT22;1893;52.526;13.360;2023-06-22T02:15:04;19.90;99.90
3756;DHT22;1893;52.526;13.360;2023-06-22T02:17:30;19.90;99.90
3756;DHT22;1893;52.526;13.360;2023-06-22T02:19:58;20.00;99.90
3756;DHT22;1893;52.526;13.360;2023-06-22T02:22:24;19.90;99.90
3756;DHT22;1893;52.526;13.360;2023-06-22T02:24:50;19.90;99.90
3756;DHT22;1893;52.526;13.360;2023-06-22T02:27:15;19.90;99.90
3756;DHT22;1893;52.526;13.360;2023-06-22T02:29:41;19.90;99.90
3756;DHT22;1893;52.526;13.360;2023-06-22T02:32:07;20.00;99.90
3756;DHT22;1893;52.526;13.360;2023-06-22T02:34:32;20.00;99.90
3756;DHT22;1893;52.526;13.360;2023-06-22T02:36:59;20.00;99.90
3756;DHT22;1893;52.526;13.360;2023-06-22T02:39:27;20.00;99.90
3756;DHT22;1893;52.526;13.360;2023-06-22T02:41:54;20.00;99.90
3756;DHT22;1893;52.526;13.360;2023-06-22T02:44:20;19.90;99.90
3756;DHT22;1893;52.526;13.360;2023-06-22T02:46:47;19.90;1.00
3756;DHT22;1893;52.526;13.360;2023-06-22T02:49:13;19.90;1.00
3756;DHT22;1893;52.526;13.360;2023-06-22T02:51:41;19.90;1.00
3756;DHT22;1893;52.526;13.360;2023-06-22T02:54:07;19.90;1.00
3756;DHT22;1893;52.526;13.360;2023-06-22T02:56:33;20.00;1.00
3756;DHT22;1893;52.526;13.360;2023-06-22T02:58:58;20.10;99.90
3756;DHT22;1893;52.526;13.360;2023-06-22T03:01:27;20.10;99.90
3756;DHT22;1893;52.526;13.360;2023-06-22T03:03:53;20.10;1.00
3756;DHT22;1893;52.526;13.360;2023-06-22T03:06:20;20.10;1.00
3756;DHT22;1893;52.526;13.360;2023-06-22T03:08:49;20.10;1.00
3756;DHT22;1893;52.526;13.360;2023-06-22T03:11:15;20.20;99.90
3756;DHT22;1893;52.526;13.360;2023-06-22T03:13:41;20.10;99.90
3756;DHT22;1893;52.526;13.360;2023-06-22T03:16:07;20.20;99.90
3756;DHT22;1893;52.526;13.360;2023-06-22T03:18:32;20.20;99.90
3756;DHT22;1893;52.526;13.360;2023-06-22T03:20:58;20.20;99.90
3756;DHT22;1893;52.526;13.360;2023-06-22T03:23:24;20.20;99.90
3756;DHT22;1893;52.526;13.360;2023-06-22T03:25:49;20.20;99.90
3756;DHT22;1893;52.526;13.360;2023-06-22T03:28:15;20.20;99.90
3756;DHT22;1893;52.526;13.360;2023-06-22T03:30:41;20.20;99.90
3756;DHT22;1893;52.526;13.360;2023-06-22T03:33:06;20.30;99.90
3756;DHT22;1893;52.526;13.360;2023-06-22T03:35:32;20.20;99.90
3756;DHT22;1893;52.526;13.360;2023-06-22T03:37:57;20.20;99.90
3756;DHT22;1893;52.526;13.360;2023-06-22T03:40:23;20.20;99.90
3756;DHT22;1893;52.526;13.360;2023-06-22T03:42:49;20.20;99.90
3756;DHT22;1893;52.526;13.360;2023-06-22T03:45:14;20.20;99.90
3756;DHT22;1893;52.526;13.360;2023-06-22T03:47:40;20.20;99.90
3756;DHT22;1893;52.526;13.360;2023-06-22T03:50:06;20.20;99.90
3756;DHT22;1893;52.526;13.360;2023-06-22T03:52:32;20.20;99.90
3756;DHT22;1893;52.526;13.360;2023-06-22T03:54:58;20.20;72.40
3756;DHT22;1893;52.526;13.360;2023-06-22T03:57:23;20.20;1.00
3756;DHT22;1893;52.526;13.360;2023-06-22T03:59:49;20.20;1.00
3756;DHT22;1893;52.526;13.360;2023-06-22T04:02:15;20.30;1.00
3756;DHT22;1893;52.526;13.360;2023-06-22T04:04:41;20.30;1.00
3756;DHT22;1893;52.526;13.360;2023-06-22T04:07:06;20.40;1.00
3756;DHT22;1893;52.526;13.360;2023-06-22T04:09:33;20.30;99.90
3756;DHT22;1893;52.526;13.360;2023-06-22T04:11:58;20.40;99.90
3756;DHT22;1893;52.526;13.360;2023-06-22T04:14:24;20.40;99.90
3756;DHT22;1893;52.526;13.360;2023-06-22T04:16:50;20.40;1.00
3756;DHT22;1893;52.526;13.360;2023-06-22T04:19:15;20.40;1.00
3756;DHT22;1893;52.526;13.360;2023-06-22T04:21:43;20.40;1.00
3756;DHT22;1893;52.526;13.360;2023-06-22T04:24:10;20.40;1.00
3756;DHT22;1893;52.526;13.360;2023-06-22T04:26:36;20.50;1.00
3756;DHT22;1893;52.526;13.360;2023-06-22T04:29:03;20.50;99.90
3756;DHT22;1893;52.526;13.360;2023-06-22T04:31:32;20.50;12.80
3756;DHT22;1893;52.526;13.360;2023-06-22T04:34:02;20.60;1.00
3756;DHT22;1893;52.526;13.360;2023-06-22T04:36:36;20.60;99.90
3756;DHT22;1893;52.526;13.360;2023-06-22T04:39:10;20.60;9.30
3756;DHT22;1893;52.526;13.360;2023-06-22T04:41:36;20.70;1.00
3756;DHT22;1893;52.526;13.360;2023-06-22T04:44:11;20.60;1.00
3756;DHT22;1893;52.526;13.360;2023-06-22T05:04:57;21.60;1.00
3756;DHT22;1893;52.526;13.360;2023-06-22T05:07:23;21.60;1.00
3756;DHT22;1893;52.526;13.360;2023-06-22T05:09:50;21.80;1.00
3756;DHT22;1893;52.526;13.360;2023-06-22T05:12:16;21.90;99.90
3756;DHT22;1893;52.526;13.360;2023-06-22T05:14:42;21.90;67.10
3756;DHT22;1893;52.526;13.360;2023-06-22T05:17:07;21.90;1.00
3756;DHT22;1893;52.526;13.360;2023-06-22T05:19:39;21.90;1.00
3756;DHT22;1893;52.526;13.360;2023-06-22T05:22:04;22.00;1.00
3756;DHT22;1893;52.526;13.360;2023-06-22T05:24:31;22.00;1.00
3756;DHT22;1893;52.526;13.360;2023-06-22T05:26:57;22.00;1.00
3756;DHT22;1893;52.526;13.360;2023-06-22T05:29:23;21.90;1.00
3756;DHT22;1893;52.526;13.360;2023-06-22T05:31:49;21.80;1.00
3756;DHT22;1893;52.526;13.360;2023-06-22T05:34:14;21.80;1.00
3756;DHT22;1893;52.526;13.360;2023-06-22T05:36:40;21.80;1.00
3756;DHT22;1893;52.526;13.360;2023-06-22T05:39:15;21.90;1.00
3756;DHT22;1893;52.526;13.360;2023-06-22T05:41:41;21.90;1.00
3756;DHT22;1893;52.526;13.360;2023-06-22T05:44:07;21.90;1.00
3756;DHT22;1893;52.526;13.360;2023-06-22T05:46:32;21.90;1.00
3756;DHT22;1893;52.526;13.360;2023-06-22T05:48:58;22.00;1.00
3756;DHT22;1893;52.526;13.360;2023-06-22T05:51:23;22.00;1.00
3756;DHT22;1893;52.526;13.360;2023-06-22T05:53:49;22.10;99.90
3756;DHT22;1893;52.526;13.360;2023-06-22T05:56:15;22.30;99.90
3756;DHT22;1893;52.526;13.360;2023-06-22T05:58:41;22.50;99.90
3756;DHT22;1893;52.526;13.360;2023-06-22T06:01:07;22.60;99.90
3756;DHT22;1893;52.526;13.360;2023-06-22T06:03:32;22.50;99.90
3756;DHT22;1893;52.526;13.360;2023-06-22T06:05:58;22.40;99.90
3756;DHT22;1893;52.526;13.360;2023-06-22T06:08:25;22.40;99.90
3756;DHT22;1893;52.526;13.360;2023-06-22T06:10:51;22.50;99.90
3756;DHT22;1893;52.526;13.360;2023-06-22T06:13:18;22.70;99.90
3756;DHT22;1893;52.526;13.360;2023-06-22T06:15:44;22.80;99.90
3756;DHT22;1893;52.526;13.360;2023-06-22T06:18:10;22.70;99.90
3756;DHT22;1893;52.526;13.360;2023-06-22T06:20:35;22.60;99.90
3756;DHT22;1893;52.526;13.360;2023-06-22T06:23:01;22.60;99.90
3756;DHT22;1893;52.526;13.360;2023-06-22T06:25:27;22.80;99.90
3756;DHT22;1893;52.526;13.360;2023-06-22T06:27:52;22.90;99.90
3756;DHT22;1893;52.526;13.360;2023-06-22T06:30:20;23.00;99.90
3756;DHT22;1893;52.526;13.360;2023-06-22T06:32:47;23.10;99.90
3756;DHT22;1893;52.526;13.360;2023-06-22T06:35:14;23.10;99.90
3756;DHT22;1893;52.526;13.360;2023-06-22T06:37:42;23.10;99.90
3756;DHT22;1893;52.526;13.360;2023-06-22T06:40:09;23.20;91.00
3756;DHT22;1893;52.526;13.360;2023-06-22T06:42:40;23.20;55.00
3756;DHT22;1893;52.526;13.360;2023-06-22T06:45:27;23.20;27.40
3756;DHT22;1893;52.526;13.360;2023-06-22T06:47:54;23.30;3.40
3756;DHT22;1893;52.526;13.360;2023-06-22T06:50:20;23.30;1.00
3756;DHT22;1893;52.526;13.360;2023-06-22T06:52:45;23.50;1.00
3756;DHT22;1893;52.526;13.360;2023-06-22T06:55:11;23.50;1.00
3756;DHT22;1893;52.526;13.360;2023-06-22T06:57:40;23.50;1.00
3756;DHT22;1893;52.526;13.360;2023-06-22T07:00:08;23.70;1.00
3756;DHT22;1893;52.526;13.360;2023-06-22T07:02:39;23.70;1.00
3756;DHT22;1893;52.526;13.360;2023-06-22T07:05:05;23.80;1.00
3756;DHT22;1893;52.526;13.360;2023-06-22T07:07:32;23.90;1.00
3756;DHT22;1893;52.526;13.360;2023-06-22T07:09:58;24.00;1.00
3756;DHT22;1893;52.526;13.360;2023-06-22T07:12:23;24.10;1.00
3756;DHT22;1893;52.526;13.360;2023-06-22T07:14:49;24.40;1.00
3756;DHT22;1893;52.526;13.360;2023-06-22T07:17:15;24.50;1.00
3756;DHT22;1893;52.526;13.360;2023-06-22T07:19:41;24.60;1.00
3756;DHT22;1893;52.526;13.360;2023-06-22T07:22:07;24.70;1.00
3756;DHT22;1893;52.526;13.360;2023-06-22T07:24:33;24.70;1.00
3756;DHT22;1893;52.526;13.360;2023-06-22T07:26:58;24.70;1.00
3756;DHT22;1893;52.526;13.360;2023-06-22T07:29:25;24.80;1.00
3756;DHT22;1893;52.526;13.360;2023-06-22T07:31:52;25.00;1.00
3756;DHT22;1893;52.526;13.360;2023-06-22T07:34:18;25.10;1.00
3756;DHT22;1893;52.526;13.360;2023-06-22T07:36:45;25.00;1.00
3756;DHT22;1893;52.526;13.360;2023-06-22T07:39:11;25.00;1.00
3756;DHT22;1893;52.526;13.360;2023-06-22T07:41:39;25.10;1.00
3756;DHT22;1893;52.526;13.360;2023-06-22T07:44:05;25.20;1.00
3756;DHT22;1893;52.526;13.360;2023-06-22T07:46:31;25.40;1.00
3756;DHT22;1893;52.526;13.360;2023-06-22T07:48:57;25.60;1.00
3756;DHT22;1893;52.526;13.360;2023-06-22T07:51:23;25.40;1.00
3756;DHT22;1893;52.526;13.360;2023-06-22T07:53:49;25.50;1.00
3756;DHT22;1893;52.526;13.360;2023-06-22T07:56:15;25.50;1.00
3756;DHT22;1893;52.526;13.360;2023-06-22T07:58:45;25.50;1.00
3756;DHT22;1893;52.526;13.360;2023-06-22T08:01:12;25.40;1.00
3756;DHT22;1893;52.526;13.360;2023-06-22T08:03:37;25.30;1.00
3756;DHT22;1893;52.526;13.360;2023-06-22T08:06:03;25.30;1.00
3756;DHT22;1893;52.526;13.360;2023-06-22T08:08:29;25.40;1.00
3756;DHT22;1893;52.526;13.360;2023-06-22T08:10:54;25.40;1.00
3756;DHT22;1893;52.526;13.360;2023-06-22T08:13:20;25.60;1.00
3756;DHT22;1893;52.526;13.360;2023-06-22T08:15:46;25.70;1.00
3756;DHT22;1893;52.526;13.360;2023-06-22T08:18:11;25.60;1.00
3756;DHT22;1893;52.526;13.360;2023-06-22T08:20:37;25.50;1.00
3756;DHT22;1893;52.526;13.360;2023-06-22T08:23:02;25.40;1.00
3756;DHT22;1893;52.526;13.360;2023-06-22T08:25:35;25.40;1.00
3756;DHT22;1893;52.526;13.360;2023-06-22T08:28:01;25.50;1.00
3756;DHT22;1893;52.526;13.360;2023-06-22T08:30:27;25.50;1.00
3756;DHT22;1893;52.526;13.360;2023-06-22T08:32:53;25.20;1.00
3756;DHT22;1893;52.526;13.360;2023-06-22T08:35:24;25.10;1.00
3756;DHT22;1893;52.526;13.360;2023-06-22T08:37:50;25.10;1.00
3756;DHT22;1893;52.526;13.360;2023-06-22T08:40:18;25.10;1.00
3756;DHT22;1893;52.526;13.360;2023-06-22T08:42:45;25.10;1.00
3756;DHT22;1893;52.526;13.360;2023-06-22T08:45:12;25.10;1.00
3756;DHT22;1893;52.526;13.360;2023-06-22T08:47:37;25.30;1.00
3756;DHT22;1893;52.526;13.360;2023-06-22T08:50:04;25.30;1.00
3756;DHT22;1893;52.526;13.360;2023-06-22T08:52:30;25.50;1.00
3756;DHT22;1893;52.526;13.360;2023-06-22T08:54:56;25.50;1.00
3756;DHT22;1893;52.526;13.360;2023-06-22T08:57:21;25.30;1.00
3756;DHT22;1893;52.526;13.360;2023-06-22T08:59:47;25.30;1.00
3756;DHT22;1893;52.526;13.360;2023-06-22T09:02:13;25.40;1.00
3756;DHT22;1893;52.526;13.360;2023-06-22T09:04:38;25.50;1.00
3756;DHT22;1893;52.526;13.360;2023-06-22T09:07:04;25.60;1.00
3756;DHT22;1893;52.526;13.360;2023-06-22T09:09:30;25.60;1.00
3756;DHT22;1893;52.526;13.360;2023-06-22T09:11:55;25.70;1.00
3756;DHT22;1893;52.526;13.360;2023-06-22T09:14:21;26.00;1.00
3756;DHT22;1893;52.526;13.360;2023-06-22T09:16:47;26.20;1.00
3756;DHT22;1893;52.526;13.360;2023-06-22T09:19:13;26.20;1.00
3756;DHT22;1893;52.526;13.360;2023-06-22T09:21:38;26.50;1.00
3756;DHT22;1893;52.526;13.360;2023-06-22T09:24:04;26.60;1.00
3756;DHT22;1893;52.526;13.360;2023-06-22T09:26:30;26.50;1.00
3756;DHT22;1893;52.526;13.360;2023-06-22T09:28:56;26.50;1.00
3756;DHT22;1893;52.526;13.360;2023-06-22T09:31:23;26.60;1.00
3756;DHT22;1893;52.526;13.360;2023-06-22T09:33:54;26.60;1.00
3756;DHT22;1893;52.526;13.360;2023-06-22T09:36:23;26.70;1.00
3756;DHT22;1893;52.526;13.360;2023-06-22T09:38:49;26.70;1.00
3756;DHT22;1893;52.526;13.360;2023-06-22T09:41:24;26.60;1.00
3756;DHT22;1893;52.526;13.360;2023-06-22T09:43:49;26.50;1.00
3756;DHT22;1893;52.526;13.360;2023-06-22T09:46:16;26.50;1.00
3756;DHT22;1893;52.526;13.360;2023-06-22T09:48:41;26.70;1.00
3756;DHT22;1893;52.526;13.360;2023-06-22T09:51:07;26.70;1.00
3756;DHT22;1893;52.526;13.360;2023-06-22T09:53:32;26.80;1.00
3756;DHT22;1893;52.526;13.360;2023-06-22T09:56:00;26.80;1.00
3756;DHT22;1893;52.526;13.360;2023-06-22T09:58:26;26.90;1.00
3756;DHT22;1893;52.526;13.360;2023-06-22T10:00:51;27.10;1.00
3756;DHT22;1893;52.526;13.360;2023-06-22T10:03:18;27.30;1.00
3756;DHT22;1893;52.526;13.360;2023-06-22T10:05:44;27.50;1.00
3756;DHT22;1893;52.526;13.360;2023-06-22T10:08:09;27.60;1.00
3756;DHT22;1893;52.526;13.360;2023-06-22T10:10:35;27.60;1.00
3756;DHT22;1893;52.526;13.360;2023-06-22T10:13:10;28.10;1.00
3756;DHT22;1893;52.526;13.360;2023-06-22T10:15:37;28.40;1.00
3756;DHT22;1893;52.526;13.360;2023-06-22T10:18:03;28.70;1.00
3756;DHT22;1893;52.526;13.360;2023-06-22T10:20:29;29.10;1.00
3756;DHT22;1893;52.526;13.360;2023-06-22T10:22:55;28.90;1.00
3756;DHT22;1893;52.526;13.360;2023-06-22T10:25:21;28.60;1.00
3756;DHT22;1893;52.526;13.360;2023-06-22T10:27:47;28.70;1.00
3756;DHT22;1893;52.526;13.360;2023-06-22T10:30:13;28.40;1.00
3756;DHT22;1893;52.526;13.360;2023-06-22T10:32:40;29.40;1.00
3756;DHT22;1893;52.526;13.360;2023-06-22T10:35:06;30.40;1.00
3756;DHT22;1893;52.526;13.360;2023-06-22T10:37:32;31.30;1.00
3756;DHT22;1893;52.526;13.360;2023-06-22T10:39:57;31.70;1.00
3756;DHT22;1893;52.526;13.360;2023-06-22T10:42:23;31.30;1.00
3756;DHT22;1893;52.526;13.360;2023-06-22T10:44:49;31.20;1.00
3756;DHT22;1893;52.526;13.360;2023-06-22T10:47:14;30.90;1.00
3756;DHT22;1893;52.526;13.360;2023-06-22T10:49:40;30.90;1.00
3756;DHT22;1893;52.526;13.360;2023-06-22T10:52:09;30.90;1.00
3756;DHT22;1893;52.526;13.360;2023-06-22T10:54:36;30.70;1.00
3756;DHT22;1893;52.526;13.360;2023-06-22T10:57:02;29.90;1.00
3756;DHT22;1893;52.526;13.360;2023-06-22T10:59:28;29.50;1.00
3756;DHT22;1893;52.526;13.360;2023-06-22T11:01:56;29.60;1.00
3756;DHT22;1893;52.526;13.360;2023-06-22T11:04:22;30.00;1.00
3756;DHT22;1893;52.526;13.360;2023-06-22T11:06:48;30.10;1.00
3756;DHT22;1893;52.526;13.360;2023-06-22T11:09:14;30.70;1.00
3756;DHT22;1893;52.526;13.360;2023-06-22T11:11:44;30.50;1.00
3756;DHT22;1893;52.526;13.360;2023-06-22T11:14:10;30.60;1.00
3756;DHT22;1893;52.526;13.360;2023-06-22T11:16:36;30.50;1.00
3756;DHT22;1893;52.526;13.360;2023-06-22T11:19:02;30.20;1.00
3756;DHT22;1893;52.526;13.360;2023-06-22T11:21:28;29.90;1.00
3756;DHT22;1893;52.526;13.360;2023-06-22T11:23:54;29.40;1.00
3756;DHT22;1893;52.526;13.360;2023-06-22T11:26:19;29.10;1.00
3756;DHT22;1893;52.526;13.360;2023-06-22T11:28:46;28.80;1.00
3756;DHT22;1893;52.526;13.360;2023-06-22T11:31:12;28.60;1.00
3756;DHT22;1893;52.526;13.360;2023-06-22T11:33:37;28.50;1.00
3756;DHT22;1893;52.526;13.360;2023-06-22T11:36:03;28.90;1.00
3756;DHT22;1893;52.526;13.360;2023-06-22T11:38:29;29.40;1.00
3756;DHT22;1893;52.526;13.360;2023-06-22T11:40:57;29.70;1.00
3756;DHT22;1893;52.526;13.360;2023-06-22T11:43:23;29.70;1.00
3756;DHT22;1893;52.526;13.360;2023-06-22T11:45:48;30.00;1.00
3756;DHT22;1893;52.526;13.360;2023-06-22T11:48:14;29.60;1.00
3756;DHT22;1893;52.526;13.360;2023-06-22T11:50:39;29.10;1.00
3756;DHT22;1893;52.526;13.360;2023-06-22T11:53:05;29.10;1.00
3756;DHT22;1893;52.526;13.360;2023-06-22T11:55:31;29.00;1.00
3756;DHT22;1893;52.526;13.360;2023-06-22T11:57:57;29.10;1.00
3756;DHT22;1893;52.526;13.360;2023-06-22T12:00:26;29.00;1.00
3756;DHT22;1893;52.526;13.360;2023-06-22T12:02:52;29.00;1.00
3756;DHT22;1893;52.526;13.360;2023-06-22T12:05:21;29.10;1.00
3756;DHT22;1893;52.526;13.360;2023-06-22T12:07:48;29.30;1.00
3756;DHT22;1893;52.526;13.360;2023-06-22T12:10:14;29.60;1.00
3756;DHT22;1893;52.526;13.360;2023-06-22T12:12:40;29.90;1.00
3756;DHT22;1893;52.526;13.360;2023-06-22T12:15:05;29.80;1.00
3756;DHT22;1893;52.526;13.360;2023-06-22T12:17:31;30.00;1.00
3756;DHT22;1893;52.526;13.360;2023-06-22T12:19:58;30.10;1.00
3756;DHT22;1893;52.526;13.360;2023-06-22T12:22:23;30.00;1.00
3756;DHT22;1893;52.526;13.360;2023-06-22T12:24:49;30.00;1.00
3756;DHT22;1893;52.526;13.360;2023-06-22T12:27:16;30.00;1.00
3756;DHT22;1893;52.526;13.360;2023-06-22T12:29:45;29.90;1.00
3756;DHT22;1893;52.526;13.360;2023-06-22T12:32:10;29.90;1.00
3756;DHT22;1893;52.526;13.360;2023-06-22T12:34:38;29.70;1.00
3756;DHT22;1893;52.526;13.360;2023-06-22T12:37:04;29.50;1.00
3756;DHT22;1893;52.526;13.360;2023-06-22T12:39:31;29.70;1.00
3756;DHT22;1893;52.526;13.360;2023-06-22T12:41:57;29.40;1.00
3756;DHT22;1893;52.526;13.360;2023-06-22T12:44:22;29.50;1.00
3756;DHT22;1893;52.526;13.360;2023-06-22T12:46:48;29.40;1.00
3756;DHT22;1893;52.526;13.360;2023-06-22T12:49:14;29.20;1.00
3756;DHT22;1893;52.526;13.360;2023-06-22T12:51:40;29.00;1.00
3756;DHT22;1893;52.526;13.360;2023-06-22T12:54:07;28.80;1.00
3756;DHT22;1893;52.526;13.360;2023-06-22T12:56:33;28.70;1.00
3756;DHT22;1893;52.526;13.360;2023-06-22T12:58:58;28.60;1.00
3756;DHT22;1893;52.526;13.360;2023-06-22T13:01:27;28.60;1.00
3756;DHT22;1893;52.526;13.360;2023-06-22T13:03:53;28.70;1.00
3756;DHT22;1893;52.526;13.360;2023-06-22T13:06:19;29.10;1.00
3756;DHT22;1893;52.526;13.360;2023-06-22T13:08:44;29.40;1.00
3756;DHT22;1893;52.526;13.360;2023-06-22T13:11:10;29.60;1.00
3756;DHT22;1893;52.526;13.360;2023-06-22T13:13:36;29.80;1.00
3756;DHT22;1893;52.526;13.360;2023-06-22T13:16:01;30.00;1.00
3756;DHT22;1893;52.526;13.360;2023-06-22T13:18:27;30.00;1.00
3756;DHT22;1893;52.526;13.360;2023-06-22T13:20:53;30.10;1.00
3756;DHT22;1893;52.526;13.360;2023-06-22T13:23:20;29.70;1.00
3756;DHT22;1893;52.526;13.360;2023-06-22T13:25:46;29.60;1.00
3756;DHT22;1893;52.526;13.360;2023-06-22T13:28:12;29.70;1.00
3756;DHT22;1893;52.526;13.360;2023-06-22T13:30:40;29.70;1.00
3756;DHT22;1893;52.526;13.360;2023-06-22T13:33:06;29.80;1.00
3756;DHT22;1893;52.526;13.360;2023-06-22T13:35:31;29.70;1.00
3756;DHT22;1893;52.526;13.360;2023-06-22T13:37:57;29.60;1.00
3756;DHT22;1893;52.526;13.360;2023-06-22T13:40:23;29.60;99.90
3756;DHT22;1893;52.526;13.360;2023-06-22T13:42:48;29.50;99.90
3756;DHT22;1893;52.526;13.360;2023-06-22T13:45:14;29.40;99.90
3756;DHT22;1893;52.526;13.360;2023-06-22T13:47:42;29.60;99.90
3756;DHT22;1893;52.526;13.360;2023-06-22T13:50:08;29.70;99.90
3756;DHT22;1893;52.526;13.360;2023-06-22T13:52:34;29.60;99.90
3756;DHT22;1893;52.526;13.360;2023-06-22T13:55:00;29.50;99.90
3756;DHT22;1893;52.526;13.360;2023-06-22T13:57:25;29.30;99.90
3756;DHT22;1893;52.526;13.360;2023-06-22T13:59:51;29.50;99.90
3756;DHT22;1893;52.526;13.360;2023-06-22T14:02:16;29.50;99.90
3756;DHT22;1893;52.526;13.360;2023-06-22T14:04:42;29.50;99.90
3756;DHT22;1893;52.526;13.360;2023-06-22T14:07:08;29.50;99.90
3756;DHT22;1893;52.526;13.360;2023-06-22T14:09:33;29.40;99.90
3756;DHT22;1893;52.526;13.360;2023-06-22T14:12:03;29.70;99.90
3756;DHT22;1893;52.526;13.360;2023-06-22T14:14:30;29.60;99.90
3756;DHT22;1893;52.526;13.360;2023-06-22T14:16:56;29.40;99.90
3756;DHT22;1893;52.526;13.360;2023-06-22T14:19:21;29.50;99.90
3756;DHT22;1893;52.526;13.360;2023-06-22T14:21:47;29.60;99.90
3756;DHT22;1893;52.526;13.360;2023-06-22T14:24:12;29.40;99.90
3756;DHT22;1893;52.526;13.360;2023-06-22T14:26:38;29.30;99.90
3756;DHT22;1893;52.526;13.360;2023-06-22T14:29:03;29.30;99.90
3756;DHT22;1893;52.526;13.360;2023-06-22T14:31:29;29.50;99.90
3756;DHT22;1893;52.526;13.360;2023-06-22T14:33:55;29.40;99.90
3756;DHT22;1893;52.526;13.360;2023-06-22T14:36:20;29.30;99.90
3756;DHT22;1893;52.526;13.360;2023-06-22T14:38:46;29.30;99.90
3756;DHT22;1893;52.526;13.360;2023-06-22T14:41:11;29.30;99.90
3756;DHT22;1893;52.526;13.360;2023-06-22T14:43:37;29.30;99.90
3756;DHT22;1893;52.526;13.360;2023-06-22T14:46:03;29.20;99.90
3756;DHT22;1893;52.526;13.360;2023-06-22T14:48:29;29.10;99.90
3756;DHT22;1893;52.526;13.360;2023-06-22T14:50:54;29.00;99.90
3756;DHT22;1893;52.526;13.360;2023-06-22T14:53:20;29.10;99.90
3756;DHT22;1893;52.526;13.360;2023-06-22T14:55:46;29.10;99.90
3756;DHT22;1893;52.526;13.360;2023-06-22T14:58:11;29.10;99.90
3756;DHT22;1893;52.526;13.360;2023-06-22T15:00:37;29.10;99.90
3756;DHT22;1893;52.526;13.360;2023-06-22T15:03:04;29.30;99.90
3756;DHT22;1893;52.526;13.360;2023-06-22T15:05:32;29.20;99.90
3756;DHT22;1893;52.526;13.360;2023-06-22T15:07:57;29.20;99.90
3756;DHT22;1893;52.526;13.360;2023-06-22T15:10:24;29.10;99.90
3756;DHT22;1893;52.526;13.360;2023-06-22T15:12:50;29.20;99.90
3756;DHT22;1893;52.526;13.360;2023-06-22T15:15:15;29.30;99.90
3756;DHT22;1893;52.526;13.360;2023-06-22T15:17:41;29.40;99.90
3756;DHT22;1893;52.526;13.360;2023-06-22T15:20:07;29.20;99.90
3756;DHT22;1893;52.526;13.360;2023-06-22T15:22:33;29.10;99.90
3756;DHT22;1893;52.526;13.360;2023-06-22T15:24:58;29.10;99.90
3756;DHT22;1893;52.526;13.360;2023-06-22T15:27:24;29.00;99.90
3756;DHT22;1893;52.526;13.360;2023-06-22T15:29:50;29.00;99.90
3756;DHT22;1893;52.526;13.360;2023-06-22T15:32:16;28.90;99.90
3756;DHT22;1893;52.526;13.360;2023-06-22T15:34:42;28.60;99.90
3756;DHT22;1893;52.526;13.360;2023-06-22T15:37:07;28.60;99.90
3756;DHT22;1893;52.526;13.360;2023-06-22T15:39:33;28.40;99.90
3756;DHT22;1893;52.526;13.360;2023-06-22T15:41:58;28.30;99.90
3756;DHT22;1893;52.526;13.360;2023-06-22T15:44:24;28.30;99.90
3756;DHT22;1893;52.526;13.360;2023-06-22T15:46:50;28.40;99.90
3756;DHT22;1893;52.526;13.360;2023-06-22T15:49:16;28.50;99.90
3756;DHT22;1893;52.526;13.360;2023-06-22T15:51:42;28.50;99.90
3756;DHT22;1893;52.526;13.360;2023-06-22T15:54:08;28.50;99.90
3756;DHT22;1893;52.526;13.360;2023-06-22T15:56:34;28.30;99.90
3756;DHT22;1893;52.526;13.360;2023-06-22T15:58:59;28.20;99.90
3756;DHT22;1893;52.526;13.360;2023-06-22T16:01:25;28.10;99.90
3756;DHT22;1893;52.526;13.360;2023-06-22T16:03:50;27.90;99.90
3756;DHT22;1893;52.526;13.360;2023-06-22T16:06:16;27.90;99.90
3756;DHT22;1893;52.526;13.360;2023-06-22T16:08:42;28.00;99.90
3756;DHT22;1893;52.526;13.360;2023-06-22T16:11:07;27.90;99.90
3756;DHT22;1893;52.526;13.360;2023-06-22T16:13:33;27.90;99.90